sensor_id;sensor_type;location;lat;lon;timestamp;P1;durP1;ratioP1;P2;durP2;ratioP2
27977;SDS011;15314;49.248;6.968;2022-10-01T00:00:58;13.43;;;12.43;;
27977;SDS011;15314;49.248;6.968;2022-10-01T00:01:59;13.02;;;11.82;;
27977;SDS011;15314;49.248;6.968;2022-10-01T00:03:00;13.23;;;11.90;;
27977;SDS011;15314;49.248;6.968;2022-10-01T00:04:00;13.40;;;12.13;;
27977;SDS011;15314;49.248;6.968;2022-10-01T00:05:01;12.82;;;11.68;;
27977;SDS011;15314;49.248;6.968;2022-10-01T00:06:03;14.38;;;13.02;;
27977;SDS011;15314;49.248;6.968;2022-10-01T00:07:09;13.02;;;11.75;;
27977;SDS011;15314;49.248;6.968;2022-10-01T00:08:14;13.05;;;11.70;;
27977;SDS011;15314;49.248;6.968;2022-10-01T00:09:15;13.23;;;12.15;;
27977;SDS011;15314;49.248;6.968;2022-10-01T00:10:16;13.02;;;11.93;;
27977;SDS011;15314;49.248;6.968;2022-10-01T00:11:18;12.45;;;11.50;;
27977;SDS011;15314;49.248;6.968;2022-10-01T00:12:20;12.88;;;11.55;;
27977;SDS011;15314;49.248;6.968;2022-10-01T00:13:21;12.93;;;11.82;;
27977;SDS011;15314;49.248;6.968;2022-10-01T00:14:22;11.70;;;10.88;;
27977;SDS011;15314;49.248;6.968;2022-10-01T00:15:23;12.45;;;11.40;;
27977;SDS011;15314;49.248;6.968;2022-10-01T00:16:26;13.00;;;11.80;;
27977;SDS011;15314;49.248;6.968;2022-10-01T00:17:27;13.13;;;11.82;;
27977;SDS011;15314;49.248;6.968;2022-10-01T00:18:28;11.70;;;10.70;;
27977;SDS011;15314;49.248;6.968;2022-10-01T00:19:29;13.25;;;12.20;;
27977;SDS011;15314;49.248;6.968;2022-10-01T00:20:30;12.60;;;11.50;;
27977;SDS011;15314;49.248;6.968;2022-10-01T00:21:31;12.23;;;11.43;;
27977;SDS011;15314;49.248;6.968;2022-10-01T00:22:32;11.57;;;10.57;;
27977;SDS011;15314;49.248;6.968;2022-10-01T00:23:35;12.85;;;11.75;;
27977;SDS011;15314;49.248;6.968;2022-10-01T00:24:36;12.25;;;11.10;;
27977;SDS011;15314;49.248;6.968;2022-10-01T00:25:37;11.48;;;10.57;;
27977;SDS011;15314;49.248;6.968;2022-10-01T00:26:39;11.00;;;10.20;;
27977;SDS011;15314;49.248;6.968;2022-10-01T00:27:43;11.45;;;10.57;;
27977;SDS011;15314;49.248;6.968;2022-10-01T00:28:46;11.40;;;10.48;;
27977;SDS011;15314;49.248;6.968;2022-10-01T00:29:47;11.82;;;11.02;;
27977;SDS011;15314;49.248;6.968;2022-10-01T00:30:48;11.35;;;10.32;;
27977;SDS011;15314;49.248;6.968;2022-10-01T00:31:48;11.23;;;10.43;;
27977;SDS011;15314;49.248;6.968;2022-10-01T00:32:51;11.27;;;10.40;;
27977;SDS011;15314;49.248;6.968;2022-10-01T00:33:54;10.63;;;9.85;;
27977;SDS011;15314;49.248;6.968;2022-10-01T00:34:58;11.02;;;10.23;;
27977;SDS011;15314;49.248;6.968;2022-10-01T00:35:59;11.65;;;10.82;;
27977;SDS011;15314;49.248;6.968;2022-10-01T00:37:00;11.57;;;10.68;;
27977;SDS011;15314;49.248;6.968;2022-10-01T00:38:00;10.68;;;9.98;;
27977;SDS011;15314;49.248;6.968;2022-10-01T00:39:01;10.65;;;9.95;;
27977;SDS011;15314;49.248;6.968;2022-10-01T00:40:02;11.13;;;10.32;;
27977;SDS011;15314;49.248;6.968;2022-10-01T00:41:05;11.02;;;10.20;;
27977;SDS011;15314;49.248;6.968;2022-10-01T00:42:14;10.80;;;10.10;;
27977;SDS011;15314;49.248;6.968;2022-10-01T00:43:24;10.43;;;9.82;;
27977;SDS011;15314;49.248;6.968;2022-10-01T00:44:34;10.60;;;9.82;;
27977;SDS011;15314;49.248;6.968;2022-10-01T00:45:36;10.55;;;9.85;;
27977;SDS011;15314;49.248;6.968;2022-10-01T00:46:40;10.77;;;9.98;;
27977;SDS011;15314;49.248;6.968;2022-10-01T00:47:47;10.93;;;9.90;;
27977;SDS011;15314;49.248;6.968;2022-10-01T00:50:03;11.40;;;10.27;;
27977;SDS011;15314;49.248;6.968;2022-10-01T00:51:09;10.45;;;9.65;;
27977;SDS011;15314;49.248;6.968;2022-10-01T00:52:12;10.65;;;9.88;;
27977;SDS011;15314;49.248;6.968;2022-10-01T00:53:17;11.30;;;10.40;;
27977;SDS011;15314;49.248;6.968;2022-10-01T00:54:22;10.70;;;9.90;;
27977;SDS011;15314;49.248;6.968;2022-10-01T00:55:26;10.10;;;9.40;;
27977;SDS011;15314;49.248;6.968;2022-10-01T00:56:31;11.45;;;9.55;;
27977;SDS011;15314;49.248;6.968;2022-10-01T00:57:33;9.65;;;9.15;;
27977;SDS011;15314;49.248;6.968;2022-10-01T00:58:34;10.73;;;9.80;;
27977;SDS011;15314;49.248;6.968;2022-10-01T00:59:34;9.98;;;9.20;;
27977;SDS011;15314;49.248;6.968;2022-10-01T01:00:36;10.30;;;9.48;;
27977;SDS011;15314;49.248;6.968;2022-10-01T01:01:37;10.75;;;9.85;;
27977;SDS011;15314;49.248;6.968;2022-10-01T01:02:39;10.02;;;9.32;;
27977;SDS011;15314;49.248;6.968;2022-10-01T01:03:40;10.30;;;9.50;;
27977;SDS011;15314;49.248;6.968;2022-10-01T01:04:40;10.02;;;9.38;;
27977;SDS011;15314;49.248;6.968;2022-10-01T01:05:41;9.65;;;9.05;;
27977;SDS011;15314;49.248;6.968;2022-10-01T01:07:45;9.68;;;9.02;;
27977;SDS011;15314;49.248;6.968;2022-10-01T01:08:48;9.25;;;8.75;;
27977;SDS011;15314;49.248;6.968;2022-10-01T01:09:54;10.23;;;9.30;;
27977;SDS011;15314;49.248;6.968;2022-10-01T01:12:19;9.75;;;9.05;;
27977;SDS011;15314;49.248;6.968;2022-10-01T01:13:32;10.35;;;9.52;;
27977;SDS011;15314;49.248;6.968;2022-10-01T01:16:24;9.50;;;9.00;;
27977;SDS011;15314;49.248;6.968;2022-10-01T01:17:46;9.73;;;9.00;;
27977;SDS011;15314;49.248;6.968;2022-10-01T01:19:04;10.07;;;9.25;;
27977;SDS011;15314;49.248;6.968;2022-10-01T01:21:35;9.77;;;9.18;;
27977;SDS011;15314;49.248;6.968;2022-10-01T01:22:44;9.98;;;9.32;;
27977;SDS011;15314;49.248;6.968;2022-10-01T01:25:07;10.50;;;9.70;;
27977;SDS011;15314;49.248;6.968;2022-10-01T01:27:33;10.43;;;9.73;;
27977;SDS011;15314;49.248;6.968;2022-10-01T01:28:39;9.35;;;8.73;;
27977;SDS011;15314;49.248;6.968;2022-10-01T01:31:04;9.95;;;9.20;;
27977;SDS011;15314;49.248;6.968;2022-10-01T01:32:23;9.40;;;8.90;;
27977;SDS011;15314;49.248;6.968;2022-10-01T01:33:35;9.63;;;8.98;;
27977;SDS011;15314;49.248;6.968;2022-10-01T01:34:39;9.40;;;8.80;;
27977;SDS011;15314;49.248;6.968;2022-10-01T01:35:45;9.85;;;9.10;;
27977;SDS011;15314;49.248;6.968;2022-10-01T01:36:48;9.75;;;9.05;;
27977;SDS011;15314;49.248;6.968;2022-10-01T01:37:58;9.68;;;9.05;;
27977;SDS011;15314;49.248;6.968;2022-10-01T01:39:03;9.85;;;8.90;;
27977;SDS011;15314;49.248;6.968;2022-10-01T01:40:07;9.43;;;8.82;;
27977;SDS011;15314;49.248;6.968;2022-10-01T01:41:11;9.43;;;8.73;;
27977;SDS011;15314;49.248;6.968;2022-10-01T01:42:15;10.35;;;9.73;;
27977;SDS011;15314;49.248;6.968;2022-10-01T01:43:37;9.20;;;8.68;;
27977;SDS011;15314;49.248;6.968;2022-10-01T01:44:43;9.60;;;8.90;;
27977;SDS011;15314;49.248;6.968;2022-10-01T01:45:46;8.60;;;8.02;;
27977;SDS011;15314;49.248;6.968;2022-10-01T01:46:50;8.93;;;8.32;;
27977;SDS011;15314;49.248;6.968;2022-10-01T01:47:55;9.95;;;9.25;;
27977;SDS011;15314;49.248;6.968;2022-10-01T01:48:58;9.95;;;9.25;;
27977;SDS011;15314;49.248;6.968;2022-10-01T01:50:03;9.23;;;8.63;;
27977;SDS011;15314;49.248;6.968;2022-10-01T01:51:16;9.50;;;8.68;;
27977;SDS011;15314;49.248;6.968;2022-10-01T01:52:31;9.52;;;8.82;;
27977;SDS011;15314;49.248;6.968;2022-10-01T01:53:32;9.70;;;9.10;;
27977;SDS011;15314;49.248;6.968;2022-10-01T01:54:33;9.15;;;8.48;;
27977;SDS011;15314;49.248;6.968;2022-10-01T01:55:35;9.05;;;8.55;;
27977;SDS011;15314;49.248;6.968;2022-10-01T01:56:36;9.32;;;8.68;;
27977;SDS011;15314;49.248;6.968;2022-10-01T01:57:40;9.43;;;8.50;;
27977;SDS011;15314;49.248;6.968;2022-10-01T01:58:43;8.88;;;8.27;;
27977;SDS011;15314;49.248;6.968;2022-10-01T01:59:45;9.23;;;8.52;;
27977;SDS011;15314;49.248;6.968;2022-10-01T02:00:49;8.75;;;8.25;;
27977;SDS011;15314;49.248;6.968;2022-10-01T02:01:51;8.80;;;8.20;;
27977;SDS011;15314;49.248;6.968;2022-10-01T02:02:52;9.05;;;8.23;;
27977;SDS011;15314;49.248;6.968;2022-10-01T02:03:56;9.48;;;8.82;;
27977;SDS011;15314;49.248;6.968;2022-10-01T02:04:58;8.57;;;7.95;;
27977;SDS011;15314;49.248;6.968;2022-10-01T02:08:34;9.43;;;8.80;;
27977;SDS011;15314;49.248;6.968;2022-10-01T02:11:11;8.52;;;8.00;;
27977;SDS011;15314;49.248;6.968;2022-10-01T02:13:44;9.40;;;8.75;;
27977;SDS011;15314;49.248;6.968;2022-10-01T02:15:07;8.65;;;7.82;;
27977;SDS011;15314;49.248;6.968;2022-10-01T02:17:31;8.70;;;8.20;;
27977;SDS011;15314;49.248;6.968;2022-10-01T02:19:02;9.07;;;8.48;;
27977;SDS011;15314;49.248;6.968;2022-10-01T02:20:25;9.05;;;8.45;;
27977;SDS011;15314;49.248;6.968;2022-10-01T02:21:40;8.85;;;8.15;;
27977;SDS011;15314;49.248;6.968;2022-10-01T02:22:42;8.70;;;8.20;;
27977;SDS011;15314;49.248;6.968;2022-10-01T02:24:53;8.60;;;8.00;;
27977;SDS011;15314;49.248;6.968;2022-10-01T02:25:57;9.15;;;8.55;;
27977;SDS011;15314;49.248;6.968;2022-10-01T02:27:05;8.88;;;8.38;;
27977;SDS011;15314;49.248;6.968;2022-10-01T02:28:11;8.95;;;8.32;;
27977;SDS011;15314;49.248;6.968;2022-10-01T02:29:15;8.40;;;7.80;;
27977;SDS011;15314;49.248;6.968;2022-10-01T02:30:18;8.43;;;8.02;;
27977;SDS011;15314;49.248;6.968;2022-10-01T02:31:19;8.65;;;8.15;;
27977;SDS011;15314;49.248;6.968;2022-10-01T02:32:21;8.60;;;8.13;;
27977;SDS011;15314;49.248;6.968;2022-10-01T02:33:28;8.77;;;8.27;;
27977;SDS011;15314;49.248;6.968;2022-10-01T02:34:31;8.23;;;7.80;;
27977;SDS011;15314;49.248;6.968;2022-10-01T02:35:33;8.82;;;8.23;;
27977;SDS011;15314;49.248;6.968;2022-10-01T02:36:35;8.70;;;8.05;;
27977;SDS011;15314;49.248;6.968;2022-10-01T02:37:40;8.73;;;8.23;;
27977;SDS011;15314;49.248;6.968;2022-10-01T02:38:43;8.48;;;7.97;;
27977;SDS011;15314;49.248;6.968;2022-10-01T02:39:45;8.77;;;8.27;;
27977;SDS011;15314;49.248;6.968;2022-10-01T02:40:50;8.52;;;7.93;;
27977;SDS011;15314;49.248;6.968;2022-10-01T02:41:54;8.98;;;8.27;;
27977;SDS011;15314;49.248;6.968;2022-10-01T02:42:58;8.50;;;8.00;;
27977;SDS011;15314;49.248;6.968;2022-10-01T02:44:05;8.60;;;7.93;;
27977;SDS011;15314;49.248;6.968;2022-10-01T02:45:09;8.73;;;8.10;;
27977;SDS011;15314;49.248;6.968;2022-10-01T02:46:13;8.38;;;7.90;;
27977;SDS011;15314;49.248;6.968;2022-10-01T02:47:21;8.85;;;8.38;;
27977;SDS011;15314;49.248;6.968;2022-10-01T02:48:25;9.85;;;8.18;;
27977;SDS011;15314;49.248;6.968;2022-10-01T02:49:26;8.63;;;8.13;;
27977;SDS011;15314;49.248;6.968;2022-10-01T02:50:30;9.30;;;8.70;;
27977;SDS011;15314;49.248;6.968;2022-10-01T02:53:09;8.95;;;8.07;;
27977;SDS011;15314;49.248;6.968;2022-10-01T02:54:21;9.02;;;8.27;;
27977;SDS011;15314;49.248;6.968;2022-10-01T02:55:29;8.90;;;8.18;;
27977;SDS011;15314;49.248;6.968;2022-10-01T02:56:34;8.70;;;8.10;;
27977;SDS011;15314;49.248;6.968;2022-10-01T02:57:54;9.00;;;8.40;;
27977;SDS011;15314;49.248;6.968;2022-10-01T02:58:56;8.68;;;8.15;;
27977;SDS011;15314;49.248;6.968;2022-10-01T02:59:57;8.60;;;8.10;;
27977;SDS011;15314;49.248;6.968;2022-10-01T03:00:59;8.85;;;8.35;;
27977;SDS011;15314;49.248;6.968;2022-10-01T03:02:00;8.88;;;8.18;;
27977;SDS011;15314;49.248;6.968;2022-10-01T03:03:00;8.75;;;8.25;;
27977;SDS011;15314;49.248;6.968;2022-10-01T03:04:01;9.13;;;8.63;;
27977;SDS011;15314;49.248;6.968;2022-10-01T03:05:02;9.07;;;8.45;;
27977;SDS011;15314;49.248;6.968;2022-10-01T03:06:03;8.50;;;8.10;;
27977;SDS011;15314;49.248;6.968;2022-10-01T03:07:04;8.18;;;7.78;;
27977;SDS011;15314;49.248;6.968;2022-10-01T03:08:05;8.80;;;8.30;;
27977;SDS011;15314;49.248;6.968;2022-10-01T03:09:05;8.90;;;8.15;;
27977;SDS011;15314;49.248;6.968;2022-10-01T03:10:08;9.25;;;8.40;;
27977;SDS011;15314;49.248;6.968;2022-10-01T03:11:10;9.15;;;8.65;;
27977;SDS011;15314;49.248;6.968;2022-10-01T03:12:11;8.57;;;8.00;;
27977;SDS011;15314;49.248;6.968;2022-10-01T03:13:11;8.82;;;8.32;;
27977;SDS011;15314;49.248;6.968;2022-10-01T03:14:12;8.80;;;8.30;;
27977;SDS011;15314;49.248;6.968;2022-10-01T03:15:14;9.75;;;8.85;;
27977;SDS011;15314;49.248;6.968;2022-10-01T03:16:17;8.25;;;7.85;;
27977;SDS011;15314;49.248;6.968;2022-10-01T03:17:18;8.88;;;8.27;;
27977;SDS011;15314;49.248;6.968;2022-10-01T03:18:18;9.50;;;8.90;;
27977;SDS011;15314;49.248;6.968;2022-10-01T03:19:19;8.98;;;8.27;;
27977;SDS011;15314;49.248;6.968;2022-10-01T03:20:20;9.25;;;8.55;;
27977;SDS011;15314;49.248;6.968;2022-10-01T03:21:21;8.88;;;8.27;;
27977;SDS011;15314;49.248;6.968;2022-10-01T03:22:22;9.18;;;8.68;;
27977;SDS011;15314;49.248;6.968;2022-10-01T03:23:22;9.38;;;8.45;;
27977;SDS011;15314;49.248;6.968;2022-10-01T03:24:23;8.63;;;7.90;;
27977;SDS011;15314;49.248;6.968;2022-10-01T03:25:23;8.98;;;8.38;;
27977;SDS011;15314;49.248;6.968;2022-10-01T03:26:24;9.15;;;8.55;;
27977;SDS011;15314;49.248;6.968;2022-10-01T03:27:25;8.95;;;8.27;;
27977;SDS011;15314;49.248;6.968;2022-10-01T03:28:25;9.35;;;8.68;;
27977;SDS011;15314;49.248;6.968;2022-10-01T03:29:26;9.13;;;8.43;;
27977;SDS011;15314;49.248;6.968;2022-10-01T03:30:27;9.23;;;8.70;;
27977;SDS011;15314;49.248;6.968;2022-10-01T03:31:29;8.80;;;8.20;;
27977;SDS011;15314;49.248;6.968;2022-10-01T03:32:30;9.88;;;8.90;;
27977;SDS011;15314;49.248;6.968;2022-10-01T03:33:31;8.55;;;8.07;;
27977;SDS011;15314;49.248;6.968;2022-10-01T03:34:32;9.70;;;9.00;;
27977;SDS011;15314;49.248;6.968;2022-10-01T03:35:32;8.85;;;8.38;;
27977;SDS011;15314;49.248;6.968;2022-10-01T03:36:33;9.60;;;8.77;;
27977;SDS011;15314;49.248;6.968;2022-10-01T03:37:34;9.15;;;8.52;;
27977;SDS011;15314;49.248;6.968;2022-10-01T03:38:34;8.63;;;8.13;;
27977;SDS011;15314;49.248;6.968;2022-10-01T03:39:35;9.50;;;8.98;;
27977;SDS011;15314;49.248;6.968;2022-10-01T03:40:35;9.40;;;8.65;;
27977;SDS011;15314;49.248;6.968;2022-10-01T03:41:38;9.18;;;8.52;;
27977;SDS011;15314;49.248;6.968;2022-10-01T03:42:39;9.45;;;8.52;;
27977;SDS011;15314;49.248;6.968;2022-10-01T03:43:39;10.32;;;9.52;;
27977;SDS011;15314;49.248;6.968;2022-10-01T03:44:40;9.15;;;8.50;;
27977;SDS011;15314;49.248;6.968;2022-10-01T03:45:40;8.82;;;8.38;;
27977;SDS011;15314;49.248;6.968;2022-10-01T03:46:41;9.02;;;8.43;;
27977;SDS011;15314;49.248;6.968;2022-10-01T03:47:42;8.90;;;8.50;;
27977;SDS011;15314;49.248;6.968;2022-10-01T03:48:43;8.93;;;8.43;;
27977;SDS011;15314;49.248;6.968;2022-10-01T03:49:43;9.75;;;9.00;;
27977;SDS011;15314;49.248;6.968;2022-10-01T03:50:50;9.82;;;9.13;;
27977;SDS011;15314;49.248;6.968;2022-10-01T03:52:55;9.90;;;9.10;;
27977;SDS011;15314;49.248;6.968;2022-10-01T03:53:57;9.25;;;8.75;;
27977;SDS011;15314;49.248;6.968;2022-10-01T03:54:58;9.63;;;8.98;;
27977;SDS011;15314;49.248;6.968;2022-10-01T03:55:59;8.95;;;8.55;;
27977;SDS011;15314;49.248;6.968;2022-10-01T03:57:00;8.75;;;8.25;;
27977;SDS011;15314;49.248;6.968;2022-10-01T03:58:01;9.40;;;8.90;;
27977;SDS011;15314;49.248;6.968;2022-10-01T03:59:02;8.93;;;8.43;;
27977;SDS011;15314;49.248;6.968;2022-10-01T04:00:03;9.63;;;8.93;;
27977;SDS011;15314;49.248;6.968;2022-10-01T04:01:04;8.10;;;7.57;;
27977;SDS011;15314;49.248;6.968;2022-10-01T04:02:05;7.93;;;7.53;;
27977;SDS011;15314;49.248;6.968;2022-10-01T04:03:06;7.95;;;7.40;;
27977;SDS011;15314;49.248;6.968;2022-10-01T04:04:07;8.63;;;8.00;;
27977;SDS011;15314;49.248;6.968;2022-10-01T04:05:07;8.82;;;8.38;;
27977;SDS011;15314;49.248;6.968;2022-10-01T04:06:09;8.10;;;7.60;;
27977;SDS011;15314;49.248;6.968;2022-10-01T04:07:09;8.45;;;7.85;;
27977;SDS011;15314;49.248;6.968;2022-10-01T04:08:10;8.43;;;8.02;;
27977;SDS011;15314;49.248;6.968;2022-10-01T04:09:12;8.68;;;8.07;;
27977;SDS011;15314;49.248;6.968;2022-10-01T04:10:13;8.52;;;8.02;;
27977;SDS011;15314;49.248;6.968;2022-10-01T04:11:13;8.55;;;8.05;;
27977;SDS011;15314;49.248;6.968;2022-10-01T04:12:14;8.40;;;7.80;;
27977;SDS011;15314;49.248;6.968;2022-10-01T04:13:15;8.55;;;7.72;;
27977;SDS011;15314;49.248;6.968;2022-10-01T04:14:16;8.75;;;8.13;;
27977;SDS011;15314;49.248;6.968;2022-10-01T04:15:16;8.70;;;8.23;;
27977;SDS011;15314;49.248;6.968;2022-10-01T04:16:17;8.50;;;8.00;;
27977;SDS011;15314;49.248;6.968;2022-10-01T04:17:18;8.40;;;7.82;;
27977;SDS011;15314;49.248;6.968;2022-10-01T04:18:19;8.52;;;7.93;;
27977;SDS011;15314;49.248;6.968;2022-10-01T04:19:20;8.25;;;7.75;;
27977;SDS011;15314;49.248;6.968;2022-10-01T04:20:21;8.63;;;7.97;;
27977;SDS011;15314;49.248;6.968;2022-10-01T04:21:21;8.63;;;7.97;;
27977;SDS011;15314;49.248;6.968;2022-10-01T04:22:22;8.50;;;8.00;;
27977;SDS011;15314;49.248;6.968;2022-10-01T04:23:23;8.52;;;8.00;;
27977;SDS011;15314;49.248;6.968;2022-10-01T04:24:24;8.45;;;7.95;;
27977;SDS011;15314;49.248;6.968;2022-10-01T04:25:24;9.07;;;8.43;;
27977;SDS011;15314;49.248;6.968;2022-10-01T04:26:26;8.93;;;8.20;;
27977;SDS011;15314;49.248;6.968;2022-10-01T04:27:26;8.90;;;8.20;;
27977;SDS011;15314;49.248;6.968;2022-10-01T04:28:27;8.48;;;7.88;;
27977;SDS011;15314;49.248;6.968;2022-10-01T04:29:29;8.68;;;8.20;;
27977;SDS011;15314;49.248;6.968;2022-10-01T04:30:30;8.40;;;7.90;;
27977;SDS011;15314;49.248;6.968;2022-10-01T04:31:33;9.25;;;8.55;;
27977;SDS011;15314;49.248;6.968;2022-10-01T04:32:33;9.13;;;8.52;;
27977;SDS011;15314;49.248;6.968;2022-10-01T04:33:36;8.35;;;7.75;;
27977;SDS011;15314;49.248;6.968;2022-10-01T04:34:36;8.48;;;7.90;;
27977;SDS011;15314;49.248;6.968;2022-10-01T04:35:51;8.57;;;8.00;;
27977;SDS011;15314;49.248;6.968;2022-10-01T04:36:52;9.07;;;8.48;;
27977;SDS011;15314;49.248;6.968;2022-10-01T04:38:00;8.82;;;8.20;;
27977;SDS011;15314;49.248;6.968;2022-10-01T04:39:07;9.02;;;8.35;;
27977;SDS011;15314;49.248;6.968;2022-10-01T04:40:07;8.38;;;7.97;;
27977;SDS011;15314;49.248;6.968;2022-10-01T04:41:09;8.70;;;8.05;;
27977;SDS011;15314;49.248;6.968;2022-10-01T04:42:10;9.27;;;8.63;;
27977;SDS011;15314;49.248;6.968;2022-10-01T04:43:12;8.18;;;7.75;;
27977;SDS011;15314;49.248;6.968;2022-10-01T04:44:12;9.10;;;8.25;;
27977;SDS011;15314;49.248;6.968;2022-10-01T04:45:13;8.68;;;8.13;;
27977;SDS011;15314;49.248;6.968;2022-10-01T04:46:14;9.23;;;8.52;;
27977;SDS011;15314;49.248;6.968;2022-10-01T04:47:15;9.07;;;8.35;;
27977;SDS011;15314;49.248;6.968;2022-10-01T04:48:16;8.52;;;7.93;;
27977;SDS011;15314;49.248;6.968;2022-10-01T04:49:17;8.77;;;8.18;;
27977;SDS011;15314;49.248;6.968;2022-10-01T04:50:17;9.30;;;8.50;;
27977;SDS011;15314;49.248;6.968;2022-10-01T04:51:18;8.45;;;7.95;;
27977;SDS011;15314;49.248;6.968;2022-10-01T04:52:19;8.50;;;8.00;;
27977;SDS011;15314;49.248;6.968;2022-10-01T04:53:20;8.70;;;7.88;;
27977;SDS011;15314;49.248;6.968;2022-10-01T04:54:20;9.38;;;8.68;;
27977;SDS011;15314;49.248;6.968;2022-10-01T04:55:21;8.77;;;8.27;;
27977;SDS011;15314;49.248;6.968;2022-10-01T04:56:22;8.73;;;8.10;;
27977;SDS011;15314;49.248;6.968;2022-10-01T04:57:23;8.80;;;8.20;;
27977;SDS011;15314;49.248;6.968;2022-10-01T04:58:23;8.52;;;7.88;;
27977;SDS011;15314;49.248;6.968;2022-10-01T04:59:24;9.63;;;8.70;;
27977;SDS011;15314;49.248;6.968;2022-10-01T05:00:24;9.30;;;8.73;;
27977;SDS011;15314;49.248;6.968;2022-10-01T05:01:25;10.68;;;8.60;;
27977;SDS011;15314;49.248;6.968;2022-10-01T05:02:26;8.43;;;7.70;;
27977;SDS011;15314;49.248;6.968;2022-10-01T05:03:28;8.55;;;7.95;;
27977;SDS011;15314;49.248;6.968;2022-10-01T05:04:28;8.90;;;8.40;;
27977;SDS011;15314;49.248;6.968;2022-10-01T05:05:29;9.20;;;8.50;;
27977;SDS011;15314;49.248;6.968;2022-10-01T05:06:32;9.10;;;8.52;;
27977;SDS011;15314;49.248;6.968;2022-10-01T05:07:33;8.93;;;8.25;;
27977;SDS011;15314;49.248;6.968;2022-10-01T05:08:34;8.73;;;8.18;;
27977;SDS011;15314;49.248;6.968;2022-10-01T05:09:35;7.90;;;7.50;;
27977;SDS011;15314;49.248;6.968;2022-10-01T05:10:36;8.65;;;8.05;;
27977;SDS011;15314;49.248;6.968;2022-10-01T05:11:36;8.27;;;7.78;;
27977;SDS011;15314;49.248;6.968;2022-10-01T05:12:38;8.55;;;7.82;;
27977;SDS011;15314;49.248;6.968;2022-10-01T05:13:38;8.25;;;7.65;;
27977;SDS011;15314;49.248;6.968;2022-10-01T05:14:39;8.40;;;7.57;;
27977;SDS011;15314;49.248;6.968;2022-10-01T05:15:40;7.97;;;7.40;;
27977;SDS011;15314;49.248;6.968;2022-10-01T05:16:40;9.50;;;8.80;;
27977;SDS011;15314;49.248;6.968;2022-10-01T05:17:41;8.07;;;7.60;;
27977;SDS011;15314;49.248;6.968;2022-10-01T05:18:42;8.23;;;7.70;;
27977;SDS011;15314;49.248;6.968;2022-10-01T05:19:43;8.25;;;7.50;;
27977;SDS011;15314;49.248;6.968;2022-10-01T05:20:44;8.57;;;7.85;;
27977;SDS011;15314;49.248;6.968;2022-10-01T05:21:44;8.65;;;7.65;;
27977;SDS011;15314;49.248;6.968;2022-10-01T05:22:45;8.52;;;7.93;;
27977;SDS011;15314;49.248;6.968;2022-10-01T05:23:47;8.07;;;7.47;;
27977;SDS011;15314;49.248;6.968;2022-10-01T05:24:48;8.05;;;7.45;;
27977;SDS011;15314;49.248;6.968;2022-10-01T05:25:49;8.10;;;7.57;;
27977;SDS011;15314;49.248;6.968;2022-10-01T05:26:49;8.25;;;7.72;;
27977;SDS011;15314;49.248;6.968;2022-10-01T05:27:50;8.65;;;8.05;;
27977;SDS011;15314;49.248;6.968;2022-10-01T05:28:50;8.60;;;7.95;;
27977;SDS011;15314;49.248;6.968;2022-10-01T05:29:53;9.10;;;8.38;;
27977;SDS011;15314;49.248;6.968;2022-10-01T05:30:53;9.40;;;8.80;;
27977;SDS011;15314;49.248;6.968;2022-10-01T05:31:56;9.80;;;9.10;;
27977;SDS011;15314;49.248;6.968;2022-10-01T05:32:58;9.88;;;9.13;;
27977;SDS011;15314;49.248;6.968;2022-10-01T05:34:00;9.68;;;9.18;;
27977;SDS011;15314;49.248;6.968;2022-10-01T05:35:01;9.57;;;8.80;;
27977;SDS011;15314;49.248;6.968;2022-10-01T05:36:04;9.02;;;8.30;;
27977;SDS011;15314;49.248;6.968;2022-10-01T05:37:05;10.05;;;9.02;;
27977;SDS011;15314;49.248;6.968;2022-10-01T05:38:06;9.70;;;8.90;;
27977;SDS011;15314;49.248;6.968;2022-10-01T05:39:06;10.15;;;9.43;;
27977;SDS011;15314;49.248;6.968;2022-10-01T05:40:07;9.98;;;9.38;;
27977;SDS011;15314;49.248;6.968;2022-10-01T05:41:08;9.18;;;8.68;;
27977;SDS011;15314;49.248;6.968;2022-10-01T05:42:09;9.60;;;8.75;;
27977;SDS011;15314;49.248;6.968;2022-10-01T05:43:10;9.63;;;8.98;;
27977;SDS011;15314;49.248;6.968;2022-10-01T05:44:11;9.60;;;8.80;;
27977;SDS011;15314;49.248;6.968;2022-10-01T05:45:12;9.15;;;8.65;;
27977;SDS011;15314;49.248;6.968;2022-10-01T05:46:13;8.93;;;8.43;;
27977;SDS011;15314;49.248;6.968;2022-10-01T05:47:13;9.95;;;9.20;;
27977;SDS011;15314;49.248;6.968;2022-10-01T05:48:14;10.38;;;9.48;;
27977;SDS011;15314;49.248;6.968;2022-10-01T05:49:14;10.00;;;9.40;;
27977;SDS011;15314;49.248;6.968;2022-10-01T05:50:16;10.30;;;9.55;;
27977;SDS011;15314;49.248;6.968;2022-10-01T05:51:17;9.95;;;9.32;;
27977;SDS011;15314;49.248;6.968;2022-10-01T05:52:17;9.93;;;9.18;;
27977;SDS011;15314;49.248;6.968;2022-10-01T05:53:18;10.77;;;10.07;;
27977;SDS011;15314;49.248;6.968;2022-10-01T05:54:19;10.48;;;9.77;;
27977;SDS011;15314;49.248;6.968;2022-10-01T05:55:22;9.55;;;8.93;;
27977;SDS011;15314;49.248;6.968;2022-10-01T05:56:23;10.30;;;9.60;;
27977;SDS011;15314;49.248;6.968;2022-10-01T05:57:24;10.02;;;9.32;;
27977;SDS011;15314;49.248;6.968;2022-10-01T05:58:24;9.80;;;9.30;;
27977;SDS011;15314;49.248;6.968;2022-10-01T05:59:25;9.23;;;8.73;;
27977;SDS011;15314;49.248;6.968;2022-10-01T06:00:26;9.75;;;9.05;;
27977;SDS011;15314;49.248;6.968;2022-10-01T06:01:28;10.15;;;9.38;;
27977;SDS011;15314;49.248;6.968;2022-10-01T06:02:28;10.05;;;9.35;;
27977;SDS011;15314;49.248;6.968;2022-10-01T06:03:29;9.90;;;9.13;;
27977;SDS011;15314;49.248;6.968;2022-10-01T06:04:30;9.82;;;9.13;;
27977;SDS011;15314;49.248;6.968;2022-10-01T06:05:31;9.68;;;8.95;;
27977;SDS011;15314;49.248;6.968;2022-10-01T06:06:32;10.02;;;9.43;;
27977;SDS011;15314;49.248;6.968;2022-10-01T06:07:33;10.23;;;9.43;;
27977;SDS011;15314;49.248;6.968;2022-10-01T06:08:34;9.73;;;8.85;;
27977;SDS011;15314;49.248;6.968;2022-10-01T06:09:35;9.77;;;9.18;;
27977;SDS011;15314;49.248;6.968;2022-10-01T06:10:36;10.43;;;9.63;;
27977;SDS011;15314;49.248;6.968;2022-10-01T06:11:37;9.13;;;8.60;;
27977;SDS011;15314;49.248;6.968;2022-10-01T06:12:38;9.10;;;8.60;;
27977;SDS011;15314;49.248;6.968;2022-10-01T06:13:39;9.00;;;8.35;;
27977;SDS011;15314;49.248;6.968;2022-10-01T06:14:44;9.80;;;9.00;;
27977;SDS011;15314;49.248;6.968;2022-10-01T06:15:44;9.32;;;8.77;;
27977;SDS011;15314;49.248;6.968;2022-10-01T06:16:46;8.98;;;8.57;;
27977;SDS011;15314;49.248;6.968;2022-10-01T06:17:46;9.73;;;9.13;;
27977;SDS011;15314;49.248;6.968;2022-10-01T06:18:47;9.52;;;8.93;;
27977;SDS011;15314;49.248;6.968;2022-10-01T06:19:48;9.35;;;8.63;;
27977;SDS011;15314;49.248;6.968;2022-10-01T06:20:50;9.27;;;8.52;;
27977;SDS011;15314;49.248;6.968;2022-10-01T06:21:50;8.25;;;7.70;;
27977;SDS011;15314;49.248;6.968;2022-10-01T06:22:52;8.85;;;8.20;;
27977;SDS011;15314;49.248;6.968;2022-10-01T06:23:54;8.23;;;7.80;;
27977;SDS011;15314;49.248;6.968;2022-10-01T06:24:55;8.95;;;8.45;;
27977;SDS011;15314;49.248;6.968;2022-10-01T06:25:57;9.23;;;8.63;;
27977;SDS011;15314;49.248;6.968;2022-10-01T06:26:59;9.02;;;8.52;;
27977;SDS011;15314;49.248;6.968;2022-10-01T06:27:59;8.85;;;8.35;;
27977;SDS011;15314;49.248;6.968;2022-10-01T06:29:00;8.82;;;8.25;;
27977;SDS011;15314;49.248;6.968;2022-10-01T06:30:02;8.68;;;8.10;;
27977;SDS011;15314;49.248;6.968;2022-10-01T06:31:03;9.38;;;8.85;;
27977;SDS011;15314;49.248;6.968;2022-10-01T06:32:04;9.70;;;8.95;;
27977;SDS011;15314;49.248;6.968;2022-10-01T06:33:07;9.65;;;9.15;;
27977;SDS011;15314;49.248;6.968;2022-10-01T06:34:10;9.00;;;8.55;;
27977;SDS011;15314;49.248;6.968;2022-10-01T06:35:10;9.00;;;8.45;;
27977;SDS011;15314;49.248;6.968;2022-10-01T06:36:11;9.35;;;8.75;;
27977;SDS011;15314;49.248;6.968;2022-10-01T06:37:11;9.38;;;8.77;;